Portada
METAR-TAF:

METAR-TAF

Aeroports :

Cúcuta, Colòmbia

latitud: 07-56N, longitud: 072-31W, altitud: 250 m

Observació

L'informe es va fer fa 34 minuts, a les 11:00 UTC
Vent 2 kt amb direcció variable
Temperatura 25°C
Humitat 74%
Pressió 1013 hPa
Visibilitat 10 km o més
Núvols disperses a una alçada de 2000 ft
Cel ennuvolat a una alçada de 8000 ft

METAR: SKCC 091100Z VRB02KT 9999 SCT020 BKN080 25/20 Q1013 RMK A2991

Hora: 06:34 (11:34 UTC)

Pronòstic

L'informe es va fer fa 7 hores i 4 minuts, a les 04:30 UTC
Pronòstic vàlid del 09 a les 06 UTC al 10 a les 06 UTC
Vent 2 kt amb direcció variable
Visibilitat 10 km o més
Núvols disperses a una alçada de 1800 ft
Evolucionant progressivament
l' 09 a les 14 UTC al 09 a les 16 UTC
Vent 15 kt del Sud/Sud-Est
Evolucionant progressivament
l' 10 a les 00 UTC al 10 a les 02 UTC
Vent 2 kt amb direcció variable

TAF: SKCC 090430Z 0906/1006 VRB02KT 9999 SCT018 BECMG 0914/0916 15015KT BECMG 1000/1002 VRB02KT TX33/0919Z TN23/0910Z

Observacions i pronòstics meteorològics de més de 4000 aeroports (METAR i TAF).

Les estacions disponibles són els punts grocs i vermells al mapa.

Posi el ratolí al punt desitjat per veure el nom de l'estació.

Feu clic per veure les observacions i els pronòstics meteorològics.

Per canviar el mapa: feu clic els botons verds amb una creu de color negre per apropar; al botó verd amb un guió per allunyar la imatge; o en les fletxes verdes per a mapes adjacents.


METAR-TAF: